createdAt,value
2019-05-10T00:02:39.290Z,39.27
2019-05-10T00:05:33.367Z,38.65
2019-05-10T00:08:27.773Z,37.98
2019-05-10T00:11:05.667Z,44.88
2019-05-10T00:13:48.883Z,41.63
2019-05-10T00:16:26.465Z,40.30
2019-05-10T00:19:02.552Z,40.17
2019-05-10T00:21:38.494Z,38.08
2019-05-10T00:24:14.462Z,37.08
2019-05-10T00:26:50.425Z,35.33
2019-05-10T00:29:26.673Z,35.58
2019-05-10T00:32:02.640Z,35.15
2019-05-10T00:34:38.600Z,34.70
2019-05-10T00:37:14.551Z,34.00
2019-05-10T00:39:50.712Z,34.33
2019-05-10T00:42:27.795Z,33.58
2019-05-10T00:45:04.770Z,32.40
2019-05-10T00:47:40.721Z,30.08
2019-05-10T00:50:16.747Z,32.63
2019-05-10T00:52:53.759Z,32.13
2019-05-10T00:55:29.728Z,40.33
2019-05-10T00:58:05.786Z,46.40
2019-05-10T01:00:41.733Z,39.65
2019-05-10T01:03:17.686Z,33.67
2019-05-10T01:05:53.647Z,29.70
2019-05-10T01:08:29.608Z,29.23
2019-05-10T01:11:06.184Z,29.20
2019-05-10T01:13:42.127Z,28.23
2019-05-10T01:16:18.085Z,28.95
2019-05-10T01:18:54.049Z,31.20
2019-05-10T01:21:30.213Z,33.50
2019-05-10T01:24:07.194Z,37.15
2019-05-10T01:26:43.240Z,42.80
2019-05-10T01:29:19.206Z,41.65
2019-05-10T01:31:55.255Z,42.38
2019-05-10T01:34:31.224Z,41.45
2019-05-10T01:37:07.168Z,46.63
2019-05-10T01:39:43.135Z,41.20
2019-05-10T01:42:19.093Z,41.55
2019-05-10T01:44:55.053Z,40.90
2019-05-10T01:47:31.106Z,35.20
2019-05-10T01:50:08.805Z,37.33
2019-05-10T01:52:44.761Z,39.58
2019-05-10T01:55:20.732Z,42.90
2019-05-10T01:57:56.672Z,39.95
2019-05-10T02:00:32.629Z,33.48
2019-05-10T02:03:08.588Z,37.05
2019-05-10T02:08:19.567Z,42.95
2019-05-10T02:10:55.527Z,36.93
2019-05-10T02:13:32.609Z,34.35
2019-05-10T02:16:08.563Z,33.25
2019-05-10T02:18:44.518Z,32.85
2019-05-10T02:21:20.478Z,33.75
2019-05-10T02:23:56.465Z,35.35
2019-05-10T02:26:32.337Z,39.42
2019-05-10T02:29:08.450Z,40.55
2019-05-10T02:31:44.408Z,42.55
2019-05-10T02:34:20.377Z,37.13
2019-05-10T02:36:56.313Z,36.42
2019-05-10T02:39:32.346Z,37.48
2019-05-10T02:42:08.557Z,38.20
2019-05-10T02:44:44.507Z,40.88
2019-05-10T02:47:20.449Z,40.80
2019-05-10T02:49:58.993Z,40.33
2019-05-10T02:52:34.216Z,37.48
2019-05-10T02:55:10.173Z,38.48
2019-05-10T02:57:47.666Z,38.70
2019-05-10T03:00:25.057Z,37.78
2019-05-10T03:03:01.219Z,37.45
2019-05-10T03:05:39.628Z,38.75
2019-05-10T03:08:16.245Z,38.23
2019-05-10T03:10:57.903Z,39.18
2019-05-10T03:13:34.862Z,39.95
2019-05-10T03:16:12.573Z,38.58
2019-05-10T03:18:54.482Z,36.38
2019-05-10T03:24:06.881Z,36.10
2019-05-10T03:26:50.741Z,36.88
2019-05-10T03:29:22.394Z,37.08
2019-05-10T03:31:58.338Z,36.42
2019-05-10T03:34:34.402Z,36.28
2019-05-10T03:37:10.651Z,36.58
2019-05-10T03:39:46.623Z,36.80
2019-05-10T03:42:22.681Z,33.35
2019-05-10T03:44:59.708Z,34.20
2019-05-10T03:47:35.719Z,31.12
2019-05-10T03:50:12.016Z,31.87
2019-05-10T03:52:51.971Z,30.17
2019-05-10T03:55:25.538Z,28.07
2019-05-10T03:58:01.424Z,27.70
2019-05-10T04:00:37.463Z,28.40
2019-05-10T04:03:13.559Z,25.17
2019-05-10T04:05:50.138Z,26.00
2019-05-10T04:08:26.184Z,23.77
2019-05-10T04:11:02.163Z,23.12
2019-05-10T04:13:38.260Z,24.30
2019-05-10T04:16:14.186Z,22.30
2019-05-10T04:18:50.200Z,22.15
2019-05-10T04:21:26.170Z,21.37
2019-05-10T04:24:02.113Z,20.77
2019-05-10T04:26:38.020Z,19.90
2019-05-10T04:29:13.911Z,19.87
2019-05-10T04:31:49.893Z,19.48
2019-05-10T04:34:25.813Z,19.85
2019-05-10T04:37:01.770Z,18.73
2019-05-10T04:39:38.026Z,19.25
2019-05-10T04:42:13.934Z,19.82
2019-05-10T04:44:53.227Z,20.35
2019-05-10T04:47:27.503Z,18.75
2019-05-10T04:50:03.597Z,20.62
2019-05-10T04:52:39.535Z,19.60
2019-05-10T04:55:15.491Z,19.90
2019-05-10T04:57:51.581Z,20.40
2019-05-10T05:00:27.612Z,21.60
2019-05-10T05:03:03.680Z,22.22
2019-05-10T05:05:39.624Z,21.95
2019-05-10T05:08:15.589Z,22.37
2019-05-10T05:10:51.680Z,23.38
2019-05-10T05:13:27.705Z,23.73
2019-05-10T05:16:03.756Z,21.75
2019-05-10T05:18:39.714Z,21.73
2019-05-10T05:21:15.770Z,21.85
2019-05-10T05:23:51.737Z,22.40
2019-05-10T05:26:27.772Z,26.82
2019-05-10T05:29:03.845Z,24.92
2019-05-10T05:31:39.813Z,22.80
2019-05-10T05:34:15.757Z,22.87
2019-05-10T05:36:51.726Z,23.83
2019-05-10T05:39:27.677Z,22.02
2019-05-10T05:42:03.576Z,19.65
2019-05-10T05:44:39.594Z,19.30
2019-05-10T05:47:15.552Z,19.10
2019-05-10T05:49:51.495Z,20.75
2019-05-10T05:52:27.574Z,21.48
2019-05-10T05:55:04.644Z,18.92
2019-05-10T05:57:40.592Z,17.80
2019-05-10T06:00:17.337Z,17.65
2019-05-10T06:02:53.329Z,17.27
2019-05-10T06:05:34.896Z,14.73
2019-05-10T06:08:21.850Z,15.30
2019-05-10T06:10:56.484Z,13.53
2019-05-10T06:13:23.544Z,15.10
2019-05-10T06:16:05.815Z,14.87
2019-05-10T06:18:41.578Z,16.15
2019-05-10T06:21:17.931Z,14.60
2019-05-10T06:23:53.471Z,14.33
2019-05-10T06:26:29.428Z,19.98
2019-05-10T06:29:16.135Z,14.38
2019-05-10T06:31:43.498Z,13.83
2019-05-10T06:34:19.461Z,12.60
2019-05-10T06:36:55.412Z,9.75
2019-05-10T06:39:31.359Z,10.75
2019-05-10T06:42:07.324Z,10.85
2019-05-10T06:44:43.282Z,11.53
2019-05-10T06:47:21.832Z,11.03
2019-05-10T06:49:57.027Z,12.45
2019-05-10T06:52:32.993Z,9.83
2019-05-10T06:55:09.257Z,11.28
2019-05-10T06:57:50.430Z,12.18
2019-05-10T07:00:22.901Z,11.88
2019-05-10T07:02:58.859Z,15.48
2019-05-10T07:05:34.926Z,11.85
2019-05-10T07:08:19.745Z,10.72
2019-05-10T07:10:48.575Z,10.03
2019-05-10T07:13:24.526Z,10.30
2019-05-10T07:16:00.696Z,10.08
2019-05-10T07:18:36.642Z,9.65
2019-05-10T07:21:12.599Z,9.25
2019-05-10T07:23:48.552Z,9.70
2019-05-10T07:26:26.850Z,6.95
2019-05-10T07:29:02.107Z,8.68
2019-05-10T07:31:38.075Z,7.85
2019-05-10T07:34:15.738Z,4.70
2019-05-10T07:36:51.716Z,4.35
2019-05-10T07:39:28.183Z,4.55
2019-05-10T07:42:06.673Z,5.62
2019-05-10T07:44:46.737Z,4.47
2019-05-10T07:47:23.821Z,3.77
2019-05-10T07:49:57.134Z,4.00
2019-05-10T07:52:36.418Z,5.17
2019-05-10T07:55:11.207Z,3.95
2019-05-10T07:57:47.103Z,3.60
2019-05-10T08:00:25.358Z,4.15
2019-05-10T08:03:12.427Z,4.05
2019-05-10T08:05:39.180Z,3.75
2019-05-10T08:08:15.388Z,4.37
2019-05-10T08:10:51.344Z,3.77
2019-05-10T08:13:28.381Z,4.12
2019-05-10T08:16:11.853Z,4.37
2019-05-10T08:18:44.846Z,5.22
2019-05-10T08:21:23.938Z,5.08
2019-05-10T08:23:59.140Z,5.10
2019-05-10T08:26:36.508Z,4.65
2019-05-10T08:29:16.640Z,5.05
2019-05-10T08:31:53.623Z,4.90
2019-05-10T08:34:28.818Z,4.42
2019-05-10T08:37:06.768Z,5.37
2019-05-10T08:39:47.886Z,4.75
2019-05-10T08:42:40.117Z,4.03
2019-05-10T08:45:04.126Z,3.87
2019-05-10T08:47:35.827Z,4.83
2019-05-10T08:50:28.820Z,5.00
2019-05-10T08:52:49.680Z,4.30
2019-05-10T08:55:25.642Z,4.25
2019-05-10T08:58:02.918Z,3.80
2019-05-10T09:00:50.595Z,4.22
2019-05-10T09:03:18.594Z,4.00
2019-05-10T09:05:54.285Z,4.45
2019-05-10T09:08:34.168Z,4.28
2019-05-10T09:11:08.952Z,4.03
2019-05-10T09:13:46.077Z,4.30
2019-05-10T09:16:23.744Z,4.00
2019-05-10T09:19:02.395Z,4.20
2019-05-10T09:21:41.225Z,4.25
2019-05-10T09:24:16.725Z,4.20
2019-05-10T09:26:56.832Z,3.75
2019-05-10T09:29:35.241Z,4.08
2019-05-10T09:32:08.992Z,4.03
2019-05-10T09:34:44.907Z,3.77
2019-05-10T09:37:22.851Z,3.50
2019-05-10T09:40:05.399Z,4.70
2019-05-10T09:42:39.945Z,3.65
2019-05-10T09:45:14.327Z,3.67
2019-05-10T09:47:52.877Z,3.90
2019-05-10T09:50:30.313Z,4.67
2019-05-10T09:53:07.331Z,4.30
2019-05-10T09:55:45.527Z,4.53
2019-05-10T09:58:22.298Z,4.80
2019-05-10T10:01:13.904Z,5.90
2019-05-10T10:03:43.277Z,6.00
2019-05-10T10:06:13.936Z,5.58
2019-05-10T10:08:53.389Z,5.22
2019-05-10T10:11:27.936Z,5.30
2019-05-10T10:14:04.063Z,5.62
2019-05-10T10:16:40.022Z,5.08
2019-05-10T10:19:18.134Z,4.60
2019-05-10T10:21:54.688Z,6.80
2019-05-10T10:24:30.654Z,5.20
2019-05-10T10:27:07.436Z,4.72
2019-05-10T10:29:43.482Z,4.50
2019-05-10T10:32:19.450Z,6.05
2019-05-10T10:34:57.674Z,5.85
2019-05-10T10:37:33.095Z,4.40
2019-05-10T10:40:09.727Z,7.87
2019-05-10T10:42:47.309Z,6.75
2019-05-10T10:45:23.428Z,5.40
2019-05-10T10:48:02.485Z,5.17
2019-05-10T10:50:37.188Z,4.95
2019-05-10T10:53:13.270Z,4.97
2019-05-10T10:55:54.626Z,5.08
2019-05-10T10:58:27.602Z,6.22
2019-05-10T11:01:10.544Z,5.90
2019-05-10T11:03:41.461Z,5.60
2019-05-10T11:06:17.523Z,6.00
2019-05-10T11:08:53.474Z,5.53
2019-05-10T11:11:38.186Z,6.60
2019-05-10T11:14:07.746Z,7.08
2019-05-10T11:16:46.719Z,6.83
2019-05-10T11:19:21.518Z,6.60
2019-05-10T11:22:04.368Z,7.08
2019-05-10T11:24:35.162Z,7.08
2019-05-10T11:27:15.194Z,6.85
2019-05-10T11:29:52.706Z,10.65
2019-05-10T11:32:26.504Z,7.62
2019-05-10T11:35:05.443Z,5.92
2019-05-10T11:37:42.102Z,6.47
2019-05-10T11:40:27.763Z,11.08
2019-05-10T11:42:55.965Z,6.20
2019-05-10T11:45:35.321Z,7.40
2019-05-10T11:48:11.006Z,6.42
2019-05-10T11:50:47.107Z,10.63
2019-05-10T11:53:24.033Z,9.50
2019-05-10T11:56:02.024Z,8.25
2019-05-10T11:58:46.060Z,6.83
2019-05-10T12:01:19.271Z,6.08
2019-05-10T12:03:53.768Z,5.12
2019-05-10T12:06:31.965Z,5.97
2019-05-10T12:09:08.019Z,5.80
2019-05-10T12:14:22.029Z,4.62
2019-05-10T12:16:58.038Z,4.83
2019-05-10T12:19:47.707Z,5.50
2019-05-10T12:22:15.887Z,6.33
2019-05-10T12:26:18.917Z,6.55
2019-05-10T12:26:58.872Z,4.35
2019-05-10T12:27:40.054Z,5.15
2019-05-10T12:30:11.486Z,4.40
2019-05-10T12:32:55.782Z,4.60
2019-05-10T12:35:26.432Z,4.67
2019-05-10T12:38:01.976Z,4.22
2019-05-10T12:40:38.132Z,4.50
2019-05-10T12:43:14.128Z,4.60
2019-05-10T12:45:51.757Z,4.62
2019-05-10T12:48:27.637Z,5.03
2019-05-10T12:51:07.746Z,5.33
2019-05-10T12:53:44.586Z,5.42
2019-05-10T12:56:19.244Z,4.62
2019-05-10T12:58:57.608Z,4.62
2019-05-10T13:01:33.254Z,4.10
2019-05-10T13:04:14.877Z,4.70
2019-05-10T13:06:47.032Z,3.90
2019-05-10T13:09:36.337Z,3.33
2019-05-10T13:12:04.085Z,3.08
2019-05-10T13:14:40.115Z,1.95
2019-05-10T13:17:17.117Z,2.08
2019-05-10T13:19:58.641Z,2.27
2019-05-10T13:22:36.755Z,2.60
2019-05-10T13:25:09.272Z,2.70
2019-05-10T13:27:45.215Z,2.40
2019-05-10T13:30:27.065Z,2.72
2019-05-10T13:33:00.346Z,2.65
2019-05-10T13:35:36.473Z,2.15
2019-05-10T13:38:12.428Z,2.47
2019-05-10T13:40:48.370Z,2.45
2019-05-10T13:43:27.112Z,2.37
2019-05-10T13:46:02.253Z,1.70
2019-05-10T13:48:38.206Z,1.90
2019-05-10T13:51:14.464Z,1.70
2019-05-10T13:53:53.896Z,1.80
2019-05-10T13:56:28.162Z,1.90
2019-05-10T13:59:15.096Z,2.12
2019-05-10T14:01:44.147Z,1.70
2019-05-10T14:04:23.035Z,2.02
2019-05-10T14:06:57.257Z,2.30
2019-05-10T14:09:33.161Z,3.17
2019-05-10T14:12:09.176Z,2.30
2019-05-10T14:14:45.330Z,2.62
2019-05-10T14:17:21.289Z,2.45
2019-05-10T14:19:57.317Z,1.72
2019-05-10T14:22:33.259Z,2.08
2019-05-10T14:25:09.766Z,2.10
2019-05-10T14:27:45.725Z,2.10
2019-05-10T14:30:22.195Z,3.58
2019-05-10T14:32:58.187Z,2.30
2019-05-10T14:35:34.207Z,3.60
2019-05-10T14:38:10.683Z,2.35
2019-05-10T14:40:46.839Z,2.83
2019-05-10T14:43:22.793Z,2.47
2019-05-10T14:45:58.761Z,2.50
2019-05-10T14:48:35.586Z,2.80
2019-05-10T14:51:13.822Z,4.60
2019-05-10T14:53:49.395Z,3.17
2019-05-10T14:56:26.162Z,2.62
2019-05-10T14:59:02.134Z,3.10
2019-05-10T15:05:01.987Z,2.47
2019-05-10T15:07:42.520Z,2.55
2019-05-10T15:10:20.330Z,3.10
2019-05-10T15:13:05.221Z,3.27
2019-05-10T15:15:41.459Z,3.05
2019-05-10T15:18:17.401Z,3.15
2019-05-10T15:20:53.361Z,2.25
2019-05-10T15:23:29.416Z,2.08
2019-05-10T15:26:11.451Z,3.50
2019-05-10T15:28:45.806Z,3.20
2019-05-10T15:31:23.772Z,4.22
2019-05-10T15:34:04.169Z,1.90
2019-05-10T15:36:37.377Z,1.82
2019-05-10T15:39:30.512Z,1.62
2019-05-10T15:42:10.966Z,1.92
2019-05-10T15:44:49.421Z,2.02
2019-05-10T15:47:25.306Z,1.30
2019-05-10T15:50:01.627Z,1.40
2019-05-10T15:52:39.469Z,1.50
2019-05-10T15:55:17.111Z,1.70
2019-05-10T15:57:57.743Z,2.15
2019-05-10T16:00:38.720Z,1.72
2019-05-10T16:03:09.145Z,1.70
2019-05-10T16:05:58.874Z,2.35
2019-05-10T16:08:24.040Z,2.10
2019-05-10T16:11:00.253Z,1.50
2019-05-10T16:13:36.131Z,1.80
2019-05-10T16:16:12.065Z,2.00
2019-05-10T16:18:48.032Z,1.80
2019-05-10T16:21:23.945Z,7.50
2019-05-10T16:23:59.829Z,3.92
2019-05-10T16:26:35.799Z,3.15
2019-05-10T16:29:11.742Z,2.15
2019-05-10T16:31:47.700Z,2.65
2019-05-10T16:34:26.336Z,2.55
2019-05-10T16:37:01.261Z,3.47
2019-05-10T16:39:37.219Z,3.72
2019-05-10T16:42:13.380Z,3.95
2019-05-10T16:44:49.324Z,5.20
2019-05-10T16:47:25.295Z,5.20
2019-05-10T16:50:01.250Z,6.10
2019-05-10T16:52:38.846Z,7.17
2019-05-10T16:55:14.798Z,6.97
2019-05-10T16:57:50.746Z,6.40
2019-05-10T17:00:26.675Z,7.78
2019-05-10T17:03:02.669Z,7.20
2019-05-10T17:05:52.331Z,6.60
2019-05-10T17:08:16.193Z,7.72
2019-05-10T17:10:52.103Z,8.48
2019-05-10T17:13:28.012Z,8.65
2019-05-10T17:16:03.893Z,6.87
2019-05-10T17:18:39.833Z,6.22
2019-05-10T17:21:15.698Z,5.90
2019-05-10T17:23:51.611Z,7.05
2019-05-10T17:26:27.486Z,8.58
2019-05-10T17:29:07.166Z,10.75
2019-05-10T17:31:45.521Z,7.58
2019-05-10T17:34:27.548Z,8.43
2019-05-10T17:36:58.022Z,8.10
2019-05-10T17:39:34.261Z,6.60
2019-05-10T17:42:10.210Z,7.47
2019-05-10T17:44:46.129Z,6.97
2019-05-10T17:47:22.064Z,6.80
2019-05-10T17:49:57.957Z,7.17
2019-05-10T17:52:33.945Z,10.23
2019-05-10T17:55:16.920Z,8.23
2019-05-10T17:57:48.744Z,9.28
2019-05-10T18:00:25.497Z,8.98
2019-05-10T18:03:01.717Z,10.80
2019-05-10T18:05:41.241Z,13.98
2019-05-10T18:08:15.202Z,16.32
2019-05-10T18:10:51.120Z,16.77
2019-05-10T18:13:27.078Z,11.43
2019-05-10T18:16:04.614Z,17.40
2019-05-10T18:18:46.209Z,18.73
2019-05-10T18:21:21.826Z,17.80
2019-05-10T18:23:58.322Z,18.75
2019-05-10T18:26:34.180Z,17.10
2019-05-10T18:29:11.186Z,21.33
2019-05-10T18:31:54.670Z,21.87
2019-05-10T18:34:26.267Z,22.73
2019-05-10T18:37:02.360Z,24.63
2019-05-10T18:39:39.267Z,23.80
2019-05-10T18:42:18.880Z,12.93
2019-05-10T18:44:54.202Z,17.02
2019-05-10T18:47:30.156Z,14.33
2019-05-10T18:50:06.696Z,13.65
2019-05-10T18:52:42.599Z,16.48
2019-05-10T18:55:18.529Z,16.50
2019-05-10T18:57:54.416Z,13.88
2019-05-10T19:00:30.311Z,13.83
2019-05-10T19:03:06.333Z,13.22
2019-05-10T19:05:42.253Z,15.70
2019-05-10T19:08:18.235Z,15.88
2019-05-10T19:10:54.231Z,17.23
2019-05-10T19:13:33.568Z,15.45
2019-05-10T19:16:07.790Z,16.73
2019-05-10T19:18:43.838Z,16.32
2019-05-10T19:21:19.731Z,16.40
2019-05-10T19:23:55.659Z,21.80
2019-05-10T19:26:31.785Z,21.65
2019-05-10T19:29:07.798Z,21.27
2019-05-10T19:31:44.085Z,22.52
2019-05-10T19:34:24.583Z,20.02
2019-05-10T19:37:00.894Z,19.07
2019-05-10T19:39:36.817Z,20.50
2019-05-10T19:42:12.700Z,24.07
2019-05-10T19:44:48.652Z,25.90
2019-05-10T19:47:24.592Z,26.27
2019-05-10T19:50:00.497Z,23.15
2019-05-10T19:52:36.380Z,20.12
2019-05-10T19:55:19.356Z,20.15
2019-05-10T19:57:54.828Z,19.73
2019-05-10T20:00:27.739Z,20.48
2019-05-10T20:03:03.630Z,21.20
2019-05-10T20:05:39.533Z,39.98
2019-05-10T20:08:15.452Z,25.55
2019-05-10T20:10:51.343Z,14.75
2019-05-10T20:13:27.885Z,12.98
2019-05-10T20:16:03.886Z,14.25
2019-05-10T20:18:39.882Z,15.25
2019-05-10T20:21:15.786Z,14.07
2019-05-10T20:23:51.708Z,13.03
2019-05-10T20:26:27.623Z,14.45
2019-05-10T20:29:03.577Z,16.85
2019-05-10T20:31:39.458Z,13.62
2019-05-10T20:34:15.409Z,13.85
2019-05-10T20:36:51.294Z,14.78
2019-05-10T20:39:27.258Z,14.33
2019-05-10T20:42:03.201Z,15.70
2019-05-10T20:44:39.079Z,12.65
2019-05-10T20:47:15.009Z,12.90
2019-05-10T20:49:50.931Z,19.75
2019-05-10T20:52:26.826Z,16.02
2019-05-10T20:55:02.793Z,14.28
2019-05-10T20:57:38.687Z,13.25
2019-05-10T21:00:14.770Z,14.47
2019-05-10T21:02:50.689Z,14.83
2019-05-10T21:05:26.861Z,15.25
2019-05-10T21:08:16.014Z,16.12
2019-05-10T21:10:40.366Z,16.25
2019-05-10T21:13:16.297Z,15.08
2019-05-10T21:15:52.499Z,14.28
2019-05-10T21:18:28.421Z,14.68
2019-05-10T21:21:04.441Z,14.10
2019-05-10T21:23:40.404Z,16.40
2019-05-10T21:26:16.317Z,14.13
2019-05-10T21:28:52.225Z,13.62
2019-05-10T21:31:29.114Z,12.93
2019-05-10T21:34:09.822Z,12.35
2019-05-10T21:36:42.668Z,11.78
2019-05-10T21:39:18.549Z,12.25
2019-05-10T21:41:54.466Z,12.45
2019-05-10T21:44:30.420Z,11.93
2019-05-10T21:47:06.325Z,12.30
2019-05-10T21:49:42.285Z,13.40
2019-05-10T21:52:18.203Z,13.10
2019-05-10T21:54:54.111Z,11.70
2019-05-10T21:57:30.042Z,11.78
2019-05-10T22:00:08.135Z,11.50
2019-05-10T22:02:45.585Z,12.20
2019-05-10T22:05:21.468Z,11.78
2019-05-10T22:07:57.382Z,13.32
2019-05-10T22:10:33.347Z,12.95
2019-05-10T22:13:09.238Z,14.10
2019-05-10T22:15:45.202Z,14.23
2019-05-10T22:18:21.113Z,14.47
2019-05-10T22:20:57.030Z,14.98
2019-05-10T22:23:32.911Z,14.83
2019-05-10T22:26:08.863Z,14.80
2019-05-10T22:28:44.798Z,17.45
2019-05-10T22:31:20.790Z,21.33
2019-05-10T22:33:56.713Z,19.02
2019-05-10T22:36:32.599Z,19.98
2019-05-10T22:39:09.568Z,18.77
2019-05-10T22:41:45.456Z,13.05
2019-05-10T22:44:21.413Z,11.88
2019-05-10T22:46:57.296Z,12.80
2019-05-10T22:49:33.210Z,10.75
2019-05-10T22:52:09.137Z,10.45
2019-05-10T22:54:45.025Z,10.32
2019-05-10T22:57:20.977Z,10.13
2019-05-10T22:59:56.921Z,11.20
2019-05-10T23:02:33.278Z,10.43
2019-05-10T23:05:09.200Z,11.48
2019-05-10T23:07:45.199Z,11.60
2019-05-10T23:10:21.160Z,12.18
2019-05-10T23:12:57.077Z,10.55
2019-05-10T23:15:33.043Z,10.63
2019-05-10T23:18:09.113Z,10.13
2019-05-10T23:20:45.180Z,10.15
2019-05-10T23:23:21.224Z,11.38
2019-05-10T23:25:57.306Z,12.47
2019-05-10T23:28:33.265Z,17.32
2019-05-10T23:31:09.209Z,18.55
2019-05-10T23:33:45.164Z,15.70
2019-05-10T23:36:21.121Z,13.90
2019-05-10T23:38:57.088Z,13.18
2019-05-10T23:41:33.045Z,17.73
2019-05-10T23:44:09.001Z,60.20
2019-05-10T23:46:44.934Z,51.18
2019-05-10T23:49:20.889Z,17.75
2019-05-10T23:51:56.857Z,12.03
2019-05-10T23:54:32.827Z,14.30
2019-05-10T23:57:08.775Z,16.23
2019-05-10T23:59:44.839Z,15.58
